Forside
METAR-TAF:

METAR-TAF

Lufthavne :

Cherbourg, Frankrig

Breddekreds: 49-39N, længdekreds: 001-28W, højde: 138 m

Aktuelle vejr

Denne rapport blev lavet for 40 minutter siden, kl. 00:30 UTC
Vind 6 kt fra vestnordvest
Temperatur 10°C
Fugtighed 87%
Tryk 1034 hPa
Sigt 10 km eller mere
ingen skyer under 1500m og ingen cumulonimbus

METAR: LFRC 250030Z AUTO 30006KT CAVOK 10/08 Q1034

Tid: 03:10 (01:10 UTC)


TAF: fraværende

Vejrobservationer og prognoser fra mere end 4000 lufthavne (METAR og TAF).

De gule og røde prikker repræsenterer de meteorologiske stationer.

Flyt musen over at se navnet på stationen.

Så klik over at se vejr observationer og prognoser.

At skifte det kort: Klik på de grønne knapper med et sort kors for at zoome ind; på den grønne knap med en bindestreg for at zoome ud; eller på de grønne pile for tilstødende kort.


METAR-TAF: